sensor_id;sensor_type;location;lat;lon;timestamp;pressure;altitude;pressure_sealevel;temperature;humidity
54042;BME280;41156;51.508;5.406;2023-05-29T00:01:22;102132.25;;;14.36;80.08
54042;BME280;41156;51.508;5.406;2023-05-29T00:04:24;102134.56;;;14.32;80.23
54042;BME280;41156;51.508;5.406;2023-05-29T00:07:24;102141.84;;;14.25;85.46
54042;BME280;41156;51.508;5.406;2023-05-29T00:10:24;102152.50;;;14.20;84.10
54042;BME280;41156;51.508;5.406;2023-05-29T00:13:24;102151.25;;;14.09;82.61
54042;BME280;41156;51.508;5.406;2023-05-29T00:16:25;102151.44;;;14.01;86.28
54042;BME280;41156;51.508;5.406;2023-05-29T00:19:25;102161.44;;;13.87;85.51
54042;BME280;41156;51.508;5.406;2023-05-29T00:22:25;102161.22;;;13.82;85.05
54042;BME280;41156;51.508;5.406;2023-05-29T00:25:26;102164.53;;;13.71;84.18
54042;BME280;41156;51.508;5.406;2023-05-29T00:28:26;102164.94;;;13.67;82.68
54042;BME280;41156;51.508;5.406;2023-05-29T00:31:26;102160.94;;;13.63;82.52
54042;BME280;41156;51.508;5.406;2023-05-29T00:34:28;102179.94;;;13.63;86.41
54042;BME280;41156;51.508;5.406;2023-05-29T00:37:28;102170.91;;;13.49;83.74
54042;BME280;41156;51.508;5.406;2023-05-29T00:40:29;102172.78;;;13.42;83.31
54042;BME280;41156;51.508;5.406;2023-05-29T00:43:29;102174.81;;;13.40;82.44
54042;BME280;41156;51.508;5.406;2023-05-29T00:46:30;102176.91;;;13.38;83.53
54042;BME280;41156;51.508;5.406;2023-05-29T00:49:31;102179.97;;;13.28;82.38
54042;BME280;41156;51.508;5.406;2023-05-29T00:52:32;102184.53;;;13.21;84.53
54042;BME280;41156;51.508;5.406;2023-05-29T00:55:33;102183.66;;;13.14;83.60
54042;BME280;41156;51.508;5.406;2023-05-29T00:58:34;102184.69;;;13.13;82.23
54042;BME280;41156;51.508;5.406;2023-05-29T01:01:35;102179.41;;;13.05;81.13
54042;BME280;41156;51.508;5.406;2023-05-29T01:04:36;102179.78;;;13.02;80.86
54042;BME280;41156;51.508;5.406;2023-05-29T01:07:36;102187.50;;;12.98;80.61
54042;BME280;41156;51.508;5.406;2023-05-29T01:10:37;102191.66;;;12.94;81.06
54042;BME280;41156;51.508;5.406;2023-05-29T01:13:38;102189.72;;;12.88;81.47
54042;BME280;41156;51.508;5.406;2023-05-29T01:16:48;102196.72;;;12.75;81.93
54042;BME280;41156;51.508;5.406;2023-05-29T01:26:58;102198.03;;;12.58;82.64
54042;BME280;41156;51.508;5.406;2023-05-29T01:30:02;102198.88;;;12.58;80.48
54042;BME280;41156;51.508;5.406;2023-05-29T01:33:03;102203.84;;;12.55;80.69
54042;BME280;41156;51.508;5.406;2023-05-29T01:36:03;102199.66;;;12.52;81.02
54042;BME280;41156;51.508;5.406;2023-05-29T01:39:05;102209.59;;;12.45;82.94
54042;BME280;41156;51.508;5.406;2023-05-29T01:42:06;102203.28;;;12.38;80.92
54042;BME280;41156;51.508;5.406;2023-05-29T01:45:07;102203.66;;;12.35;80.97
54042;BME280;41156;51.508;5.406;2023-05-29T01:48:08;102198.22;;;12.35;81.11
54042;BME280;41156;51.508;5.406;2023-05-29T01:51:10;102201.25;;;12.25;82.21
54042;BME280;41156;51.508;5.406;2023-05-29T01:54:11;102203.34;;;12.23;82.47
54042;BME280;41156;51.508;5.406;2023-05-29T01:57:12;102200.81;;;12.21;81.81
54042;BME280;41156;51.508;5.406;2023-05-29T02:00:13;102194.38;;;12.23;81.09
54042;BME280;41156;51.508;5.406;2023-05-29T02:03:16;102197.47;;;12.19;81.89
54042;BME280;41156;51.508;5.406;2023-05-29T02:06:17;102202.25;;;12.17;81.06
54042;BME280;41156;51.508;5.406;2023-05-29T02:09:17;102200.75;;;12.15;84.70
54042;BME280;41156;51.508;5.406;2023-05-29T02:12:17;102200.28;;;12.11;81.80
54042;BME280;41156;51.508;5.406;2023-05-29T02:15:18;102197.59;;;12.11;81.07
54042;BME280;41156;51.508;5.406;2023-05-29T02:18:18;102207.78;;;12.09;81.40
54042;BME280;41156;51.508;5.406;2023-05-29T02:21:19;102204.81;;;12.04;82.88
54042;BME280;41156;51.508;5.406;2023-05-29T02:24:19;102207.63;;;11.96;81.72
54042;BME280;41156;51.508;5.406;2023-05-29T02:27:19;102210.03;;;11.91;82.27
54042;BME280;41156;51.508;5.406;2023-05-29T02:30:20;102211.88;;;11.90;83.39
54042;BME280;41156;51.508;5.406;2023-05-29T02:33:20;102218.72;;;11.86;83.38
54042;BME280;41156;51.508;5.406;2023-05-29T02:36:21;102214.53;;;11.83;81.80
54042;BME280;41156;51.508;5.406;2023-05-29T02:39:21;102223.03;;;11.80;82.19
54042;BME280;41156;51.508;5.406;2023-05-29T02:42:21;102212.47;;;11.71;83.14
54042;BME280;41156;51.508;5.406;2023-05-29T02:45:21;102220.81;;;11.69;81.91
54042;BME280;41156;51.508;5.406;2023-05-29T02:48:22;102214.91;;;11.65;83.39
54042;BME280;41156;51.508;5.406;2023-05-29T02:51:22;102224.63;;;11.60;83.27
54042;BME280;41156;51.508;5.406;2023-05-29T02:54:23;102231.66;;;11.54;83.15
54042;BME280;41156;51.508;5.406;2023-05-29T02:57:25;102226.25;;;11.54;82.43
54042;BME280;41156;51.508;5.406;2023-05-29T03:00:25;102233.22;;;11.48;84.67
54042;BME280;41156;51.508;5.406;2023-05-29T03:03:26;102231.94;;;11.44;85.09
54042;BME280;41156;51.508;5.406;2023-05-29T03:06:26;102232.84;;;11.37;84.28
54042;BME280;41156;51.508;5.406;2023-05-29T03:09:26;102228.19;;;11.30;85.89
54042;BME280;41156;51.508;5.406;2023-05-29T03:12:26;102234.00;;;11.27;83.77
54042;BME280;41156;51.508;5.406;2023-05-29T03:15:30;102241.25;;;11.27;83.67
54042;BME280;41156;51.508;5.406;2023-05-29T03:18:30;102232.00;;;11.21;84.54
54042;BME280;41156;51.508;5.406;2023-05-29T03:21:30;102224.25;;;11.18;85.75
54042;BME280;41156;51.508;5.406;2023-05-29T03:24:32;102228.84;;;11.18;83.73
54042;BME280;41156;51.508;5.406;2023-05-29T03:27:34;102228.16;;;11.16;83.82
54042;BME280;41156;51.508;5.406;2023-05-29T03:30:35;102230.88;;;11.16;85.46
54042;BME280;41156;51.508;5.406;2023-05-29T03:33:35;102230.59;;;11.10;85.96
54042;BME280;41156;51.508;5.406;2023-05-29T03:36:36;102225.56;;;11.07;85.17
54042;BME280;41156;51.508;5.406;2023-05-29T03:39:36;102232.63;;;11.08;84.04
54042;BME280;41156;51.508;5.406;2023-05-29T03:42:36;102236.19;;;11.09;84.23
54042;BME280;41156;51.508;5.406;2023-05-29T03:45:37;102237.94;;;11.02;90.04
54042;BME280;41156;51.508;5.406;2023-05-29T03:48:37;102237.38;;;10.91;86.03
54042;BME280;41156;51.508;5.406;2023-05-29T03:51:38;102241.94;;;10.91;89.79
54042;BME280;41156;51.508;5.406;2023-05-29T03:54:38;102240.25;;;10.90;85.35
54042;BME280;41156;51.508;5.406;2023-05-29T03:57:39;102252.75;;;10.91;87.34
54042;BME280;41156;51.508;5.406;2023-05-29T04:00:40;102255.84;;;10.88;91.71
54042;BME280;41156;51.508;5.406;2023-05-29T04:03:40;102258.06;;;10.84;91.37
54042;BME280;41156;51.508;5.406;2023-05-29T04:06:41;102252.53;;;10.78;91.11
54042;BME280;41156;51.508;5.406;2023-05-29T04:09:41;102256.91;;;10.79;87.56
54042;BME280;41156;51.508;5.406;2023-05-29T04:12:41;102259.13;;;10.75;91.47
54042;BME280;41156;51.508;5.406;2023-05-29T04:15:41;102265.19;;;10.77;91.30
54042;BME280;41156;51.508;5.406;2023-05-29T04:18:42;102267.06;;;10.77;89.16
54042;BME280;41156;51.508;5.406;2023-05-29T04:21:42;102267.91;;;10.77;90.98
54042;BME280;41156;51.508;5.406;2023-05-29T04:24:43;102270.44;;;10.79;87.81
54042;BME280;41156;51.508;5.406;2023-05-29T04:27:46;102272.94;;;10.80;88.35
54042;BME280;41156;51.508;5.406;2023-05-29T04:30:49;102268.19;;;10.82;89.04
54042;BME280;41156;51.508;5.406;2023-05-29T04:33:50;102271.06;;;10.81;92.49
54042;BME280;41156;51.508;5.406;2023-05-29T04:36:54;102274.47;;;10.83;88.98
54042;BME280;41156;51.508;5.406;2023-05-29T04:39:55;102278.00;;;10.83;93.59
54042;BME280;41156;51.508;5.406;2023-05-29T04:42:56;102278.00;;;10.83;88.86
54042;BME280;41156;51.508;5.406;2023-05-29T04:46:00;102283.69;;;10.88;88.92
54042;BME280;41156;51.508;5.406;2023-05-29T04:49:02;102278.28;;;10.88;89.08
54042;BME280;41156;51.508;5.406;2023-05-29T04:52:03;102275.59;;;10.88;89.35
54042;BME280;41156;51.508;5.406;2023-05-29T04:55:05;102282.22;;;10.86;88.68
54042;BME280;41156;51.508;5.406;2023-05-29T04:58:06;102287.19;;;10.97;88.27
54042;BME280;41156;51.508;5.406;2023-05-29T05:01:07;102284.47;;;10.97;90.02
54042;BME280;41156;51.508;5.406;2023-05-29T05:04:08;102291.75;;;10.97;92.42
54042;BME280;41156;51.508;5.406;2023-05-29T05:07:08;102285.44;;;11.04;91.45
54042;BME280;41156;51.508;5.406;2023-05-29T05:10:09;102277.16;;;11.06;90.00
54042;BME280;41156;51.508;5.406;2023-05-29T05:13:10;102277.91;;;11.15;88.50
54042;BME280;41156;51.508;5.406;2023-05-29T05:16:11;102280.25;;;11.18;87.94
54042;BME280;41156;51.508;5.406;2023-05-29T05:19:12;102290.72;;;11.21;88.29
54042;BME280;41156;51.508;5.406;2023-05-29T05:22:12;102294.16;;;11.29;87.91
54042;BME280;41156;51.508;5.406;2023-05-29T05:25:12;102297.53;;;11.32;88.62
54042;BME280;41156;51.508;5.406;2023-05-29T05:28:12;102295.94;;;11.37;88.14
54042;BME280;41156;51.508;5.406;2023-05-29T05:31:13;102313.13;;;11.44;87.49
54042;BME280;41156;51.508;5.406;2023-05-29T05:34:13;102310.72;;;11.50;89.49
54042;BME280;41156;51.508;5.406;2023-05-29T05:37:14;102313.53;;;11.56;87.09
54042;BME280;41156;51.508;5.406;2023-05-29T05:40:14;102312.69;;;11.56;88.20
54042;BME280;41156;51.508;5.406;2023-05-29T05:43:14;102314.63;;;11.62;87.32
54042;BME280;41156;51.508;5.406;2023-05-29T05:46:15;102311.75;;;11.63;86.95
54042;BME280;41156;51.508;5.406;2023-05-29T05:49:17;102322.13;;;11.75;86.40
54042;BME280;41156;51.508;5.406;2023-05-29T05:52:17;102309.69;;;11.80;86.98
54042;BME280;41156;51.508;5.406;2023-05-29T05:55:18;102311.38;;;11.81;86.16
54042;BME280;41156;51.508;5.406;2023-05-29T05:58:18;102308.94;;;11.87;86.38
54042;BME280;41156;51.508;5.406;2023-05-29T06:01:18;102306.34;;;11.93;85.22
54042;BME280;41156;51.508;5.406;2023-05-29T06:04:19;102301.94;;;12.07;84.52
54042;BME280;41156;51.508;5.406;2023-05-29T06:07:19;102299.50;;;12.12;84.81
54042;BME280;41156;51.508;5.406;2023-05-29T06:10:20;102310.72;;;12.24;84.68
54042;BME280;41156;51.508;5.406;2023-05-29T06:13:20;102318.94;;;12.31;83.37
54042;BME280;41156;51.508;5.406;2023-05-29T06:16:20;102323.63;;;12.44;83.00
54042;BME280;41156;51.508;5.406;2023-05-29T06:19:21;102319.78;;;12.53;82.38
54042;BME280;41156;51.508;5.406;2023-05-29T06:22:21;102327.81;;;12.61;82.14
54042;BME280;41156;51.508;5.406;2023-05-29T06:25:21;102324.53;;;12.66;81.31
54042;BME280;41156;51.508;5.406;2023-05-29T06:28:22;102323.09;;;12.70;81.26
54042;BME280;41156;51.508;5.406;2023-05-29T06:31:22;102331.38;;;12.83;80.98
54042;BME280;41156;51.508;5.406;2023-05-29T06:34:22;102330.84;;;12.94;79.74
54042;BME280;41156;51.508;5.406;2023-05-29T06:37:22;102336.94;;;12.96;79.34
54042;BME280;41156;51.508;5.406;2023-05-29T06:40:23;102341.59;;;13.03;78.65
54042;BME280;41156;51.508;5.406;2023-05-29T06:43:23;102339.13;;;13.08;78.26
54042;BME280;41156;51.508;5.406;2023-05-29T06:46:23;102331.72;;;13.23;77.26
54042;BME280;41156;51.508;5.406;2023-05-29T06:49:23;102340.84;;;13.37;76.22
54042;BME280;41156;51.508;5.406;2023-05-29T06:52:24;102327.97;;;13.46;76.38
54042;BME280;41156;51.508;5.406;2023-05-29T06:55:24;102338.75;;;13.61;76.26
54042;BME280;41156;51.508;5.406;2023-05-29T06:58:25;102337.19;;;13.80;75.59
54042;BME280;41156;51.508;5.406;2023-05-29T07:01:25;102339.13;;;13.93;73.88
54042;BME280;41156;51.508;5.406;2023-05-29T07:04:25;102339.72;;;13.88;74.17
54042;BME280;41156;51.508;5.406;2023-05-29T07:07:26;102342.91;;;13.98;73.87
54042;BME280;41156;51.508;5.406;2023-05-29T07:10:26;102340.44;;;14.03;71.70
54042;BME280;41156;51.508;5.406;2023-05-29T07:13:26;102336.50;;;14.06;72.66
54042;BME280;41156;51.508;5.406;2023-05-29T07:16:27;102341.81;;;14.28;72.67
54042;BME280;41156;51.508;5.406;2023-05-29T07:19:27;102339.97;;;14.41;71.02
54042;BME280;41156;51.508;5.406;2023-05-29T07:22:29;102351.56;;;14.64;71.81
54042;BME280;41156;51.508;5.406;2023-05-29T07:25:30;102348.03;;;14.70;70.80
54042;BME280;41156;51.508;5.406;2023-05-29T07:28:30;102345.75;;;14.73;68.99
54042;BME280;41156;51.508;5.406;2023-05-29T07:31:30;102343.91;;;14.94;69.77
54042;BME280;41156;51.508;5.406;2023-05-29T07:34:31;102346.00;;;15.05;66.41
54042;BME280;41156;51.508;5.406;2023-05-29T07:37:31;102339.94;;;15.23;67.97
54042;BME280;41156;51.508;5.406;2023-05-29T07:40:31;102349.78;;;15.44;66.95
54042;BME280;41156;51.508;5.406;2023-05-29T07:43:32;102347.44;;;15.68;65.65
54042;BME280;41156;51.508;5.406;2023-05-29T07:46:32;102352.47;;;15.84;65.33
54042;BME280;41156;51.508;5.406;2023-05-29T07:49:32;102351.19;;;15.87;64.03
54042;BME280;41156;51.508;5.406;2023-05-29T07:52:33;102358.72;;;15.91;62.55
54042;BME280;41156;51.508;5.406;2023-05-29T07:55:34;102363.31;;;16.04;62.32
54042;BME280;41156;51.508;5.406;2023-05-29T07:58:35;102367.94;;;16.04;62.90
54042;BME280;41156;51.508;5.406;2023-05-29T08:01:36;102358.03;;;16.16;63.07
54042;BME280;41156;51.508;5.406;2023-05-29T08:04:37;102365.13;;;16.31;62.36
54042;BME280;41156;51.508;5.406;2023-05-29T08:07:37;102364.41;;;16.42;62.14
54042;BME280;41156;51.508;5.406;2023-05-29T08:10:38;102369.66;;;16.43;57.93
54042;BME280;41156;51.508;5.406;2023-05-29T08:13:38;102364.09;;;16.63;61.62
54042;BME280;41156;51.508;5.406;2023-05-29T08:16:39;102369.22;;;16.92;61.95
54042;BME280;41156;51.508;5.406;2023-05-29T08:19:39;102363.72;;;17.30;61.12
54042;BME280;41156;51.508;5.406;2023-05-29T08:22:39;102363.81;;;17.86;57.25
54042;BME280;41156;51.508;5.406;2023-05-29T08:25:40;102367.47;;;18.17;56.49
54042;BME280;41156;51.508;5.406;2023-05-29T08:28:40;102365.78;;;18.34;57.05
54042;BME280;41156;51.508;5.406;2023-05-29T08:31:40;102374.34;;;18.56;52.05
54042;BME280;41156;51.508;5.406;2023-05-29T08:34:41;102375.03;;;18.52;54.65
54042;BME280;41156;51.508;5.406;2023-05-29T08:37:41;102388.84;;;18.75;54.64
54042;BME280;41156;51.508;5.406;2023-05-29T08:40:42;102382.75;;;18.73;53.13
54042;BME280;41156;51.508;5.406;2023-05-29T08:43:42;102376.50;;;18.84;53.92
54042;BME280;41156;51.508;5.406;2023-05-29T08:46:43;102375.28;;;18.80;54.98
54042;BME280;41156;51.508;5.406;2023-05-29T08:49:45;102371.81;;;19.03;54.64
54042;BME280;41156;51.508;5.406;2023-05-29T08:52:49;102384.47;;;19.40;53.77
54042;BME280;41156;51.508;5.406;2023-05-29T08:55:52;102376.75;;;19.72;52.85
54042;BME280;41156;51.508;5.406;2023-05-29T08:58:56;102381.41;;;19.95;52.54
54042;BME280;41156;51.508;5.406;2023-05-29T09:01:57;102386.28;;;19.70;51.42
54042;BME280;41156;51.508;5.406;2023-05-29T09:04:57;102388.22;;;19.81;52.07
54042;BME280;41156;51.508;5.406;2023-05-29T09:07:58;102392.25;;;20.02;51.48
54042;BME280;41156;51.508;5.406;2023-05-29T09:10:59;102386.81;;;19.78;49.93
54042;BME280;41156;51.508;5.406;2023-05-29T09:13:59;102390.84;;;19.88;49.17
54042;BME280;41156;51.508;5.406;2023-05-29T09:17:00;102388.66;;;20.13;49.09
54042;BME280;41156;51.508;5.406;2023-05-29T09:20:00;102391.91;;;19.99;49.35
54042;BME280;41156;51.508;5.406;2023-05-29T09:23:06;102392.16;;;19.85;48.89
54042;BME280;41156;51.508;5.406;2023-05-29T09:26:06;102404.22;;;19.84;48.38
54042;BME280;41156;51.508;5.406;2023-05-29T09:29:07;102397.28;;;19.82;48.40
54042;BME280;41156;51.508;5.406;2023-05-29T09:32:10;102385.44;;;20.05;48.07
54042;BME280;41156;51.508;5.406;2023-05-29T09:35:10;102388.31;;;20.22;48.13
54042;BME280;41156;51.508;5.406;2023-05-29T09:38:12;102380.97;;;20.39;47.31
54042;BME280;41156;51.508;5.406;2023-05-29T09:41:12;102367.19;;;20.51;47.46
54042;BME280;41156;51.508;5.406;2023-05-29T09:44:13;102378.78;;;20.82;47.21
54042;BME280;41156;51.508;5.406;2023-05-29T09:47:17;102367.97;;;20.92;45.01
54042;BME280;41156;51.508;5.406;2023-05-29T09:50:19;102382.69;;;20.57;43.81
54042;BME280;41156;51.508;5.406;2023-05-29T09:53:25;102377.72;;;20.42;44.87
54042;BME280;41156;51.508;5.406;2023-05-29T09:56:26;102376.75;;;20.48;44.57
54042;BME280;41156;51.508;5.406;2023-05-29T09:59:27;102380.75;;;20.69;44.60
54042;BME280;41156;51.508;5.406;2023-05-29T10:02:28;102376.53;;;20.79;45.50
54042;BME280;41156;51.508;5.406;2023-05-29T10:05:28;102370.56;;;20.82;46.34
54042;BME280;41156;51.508;5.406;2023-05-29T10:08:30;102372.91;;;20.90;44.78
54042;BME280;41156;51.508;5.406;2023-05-29T10:11:31;102369.22;;;21.01;44.63
54042;BME280;41156;51.508;5.406;2023-05-29T10:14:33;102376.41;;;21.19;45.70
54042;BME280;41156;51.508;5.406;2023-05-29T10:17:35;102380.91;;;21.42;44.70
54042;BME280;41156;51.508;5.406;2023-05-29T10:20:36;102377.28;;;21.54;42.89
54042;BME280;41156;51.508;5.406;2023-05-29T10:23:37;102375.31;;;21.71;44.57
54042;BME280;41156;51.508;5.406;2023-05-29T10:26:39;102375.44;;;21.81;43.48
54042;BME280;41156;51.508;5.406;2023-05-29T10:29:56;102368.81;;;21.99;42.72
54042;BME280;41156;51.508;5.406;2023-05-29T10:36:35;102359.38;;;22.12;43.08
54042;BME280;41156;51.508;5.406;2023-05-29T10:39:37;102355.84;;;22.17;43.59
54042;BME280;41156;51.508;5.406;2023-05-29T10:42:48;102361.47;;;22.27;42.17
54042;BME280;41156;51.508;5.406;2023-05-29T10:45:52;102359.47;;;22.67;42.70
54042;BME280;41156;51.508;5.406;2023-05-29T10:48:53;102366.00;;;22.88;42.20
54042;BME280;41156;51.508;5.406;2023-05-29T10:51:54;102365.69;;;22.84;42.35
54042;BME280;41156;51.508;5.406;2023-05-29T10:54:54;102358.06;;;22.91;41.79
54042;BME280;41156;51.508;5.406;2023-05-29T10:57:55;102362.59;;;22.48;39.04
54042;BME280;41156;51.508;5.406;2023-05-29T11:00:55;102355.28;;;22.37;41.07
54042;BME280;41156;51.508;5.406;2023-05-29T11:04:30;102358.25;;;22.30;39.52
54042;BME280;41156;51.508;5.406;2023-05-29T11:07:33;102356.16;;;22.43;39.71
54042;BME280;41156;51.508;5.406;2023-05-29T11:13:53;102345.59;;;22.34;41.08
54042;BME280;41156;51.508;5.406;2023-05-29T11:16:54;102350.56;;;22.32;41.09
54042;BME280;41156;51.508;5.406;2023-05-29T11:19:56;102339.06;;;22.41;40.38
54042;BME280;41156;51.508;5.406;2023-05-29T11:26:00;102341.88;;;22.24;40.57
54042;BME280;41156;51.508;5.406;2023-05-29T11:29:03;102335.97;;;22.32;41.61
54042;BME280;41156;51.508;5.406;2023-05-29T11:32:05;102335.59;;;22.50;41.64
54042;BME280;41156;51.508;5.406;2023-05-29T11:35:08;102328.47;;;22.82;41.06
54042;BME280;41156;51.508;5.406;2023-05-29T11:38:09;102334.38;;;22.96;39.07
54042;BME280;41156;51.508;5.406;2023-05-29T11:41:09;102351.34;;;22.82;40.52
54042;BME280;41156;51.508;5.406;2023-05-29T11:44:13;102337.53;;;22.77;40.29
54042;BME280;41156;51.508;5.406;2023-05-29T11:47:13;102344.78;;;22.88;38.98
54042;BME280;41156;51.508;5.406;2023-05-29T11:50:22;102346.84;;;23.03;39.69
54042;BME280;41156;51.508;5.406;2023-05-29T11:53:25;102334.56;;;22.84;39.27
54042;BME280;41156;51.508;5.406;2023-05-29T11:56:26;102329.69;;;22.64;40.08
54042;BME280;41156;51.508;5.406;2023-05-29T11:59:31;102332.44;;;22.64;40.39
54042;BME280;41156;51.508;5.406;2023-05-29T12:02:32;102334.41;;;23.01;40.18
54042;BME280;41156;51.508;5.406;2023-05-29T12:05:44;102322.50;;;23.22;39.71
54042;BME280;41156;51.508;5.406;2023-05-29T12:08:51;102325.31;;;23.33;39.64
54042;BME280;41156;51.508;5.406;2023-05-29T12:11:51;102336.19;;;23.12;39.18
54042;BME280;41156;51.508;5.406;2023-05-29T12:14:51;102336.16;;;23.07;37.91
54042;BME280;41156;51.508;5.406;2023-05-29T12:17:53;102334.06;;;22.92;38.87
54042;BME280;41156;51.508;5.406;2023-05-29T12:21:00;102335.13;;;22.86;38.30
54042;BME280;41156;51.508;5.406;2023-05-29T12:24:01;102340.63;;;22.86;38.88
54042;BME280;41156;51.508;5.406;2023-05-29T12:27:05;102336.91;;;23.02;38.24
54042;BME280;41156;51.508;5.406;2023-05-29T12:30:11;102332.28;;;23.08;39.11
54042;BME280;41156;51.508;5.406;2023-05-29T12:33:31;102328.00;;;23.22;38.66
54042;BME280;41156;51.508;5.406;2023-05-29T12:36:32;102324.88;;;23.51;38.84
54042;BME280;41156;51.508;5.406;2023-05-29T12:39:32;102329.84;;;23.49;38.41
54042;BME280;41156;51.508;5.406;2023-05-29T12:42:33;102324.00;;;23.40;37.87
54042;BME280;41156;51.508;5.406;2023-05-29T12:45:33;102323.03;;;23.24;38.69
54042;BME280;41156;51.508;5.406;2023-05-29T12:48:34;102327.47;;;23.25;38.44
54042;BME280;41156;51.508;5.406;2023-05-29T12:51:34;102326.19;;;23.38;38.02
54042;BME280;41156;51.508;5.406;2023-05-29T12:54:35;102330.84;;;23.38;37.98
54042;BME280;41156;51.508;5.406;2023-05-29T12:57:36;102330.34;;;23.41;37.72
54042;BME280;41156;51.508;5.406;2023-05-29T13:00:37;102327.56;;;23.41;37.04
54042;BME280;41156;51.508;5.406;2023-05-29T13:03:38;102332.00;;;23.42;35.94
54042;BME280;41156;51.508;5.406;2023-05-29T13:06:38;102325.81;;;23.24;37.27
54042;BME280;41156;51.508;5.406;2023-05-29T13:09:39;102330.78;;;23.27;36.09
54042;BME280;41156;51.508;5.406;2023-05-29T13:12:40;102326.03;;;23.18;36.19
54042;BME280;41156;51.508;5.406;2023-05-29T13:15:40;102321.78;;;23.05;37.15
54042;BME280;41156;51.508;5.406;2023-05-29T13:18:40;102329.56;;;23.13;36.84
54042;BME280;41156;51.508;5.406;2023-05-29T13:21:41;102335.72;;;23.20;37.27
54042;BME280;41156;51.508;5.406;2023-05-29T13:24:48;102346.28;;;23.34;36.90
54042;BME280;41156;51.508;5.406;2023-05-29T13:27:48;102333.44;;;23.12;36.40
54042;BME280;41156;51.508;5.406;2023-05-29T13:30:49;102336.91;;;23.02;36.43
54042;BME280;41156;51.508;5.406;2023-05-29T13:33:49;102329.00;;;23.11;36.07
54042;BME280;41156;51.508;5.406;2023-05-29T13:36:50;102324.75;;;23.31;36.20
54042;BME280;41156;51.508;5.406;2023-05-29T13:39:50;102325.88;;;23.35;36.50
54042;BME280;41156;51.508;5.406;2023-05-29T13:42:50;102325.56;;;23.31;36.13
54042;BME280;41156;51.508;5.406;2023-05-29T13:45:51;102313.38;;;23.22;34.41
54042;BME280;41156;51.508;5.406;2023-05-29T13:48:51;102324.38;;;23.17;34.54
54042;BME280;41156;51.508;5.406;2023-05-29T13:51:52;102331.41;;;23.02;35.10
54042;BME280;41156;51.508;5.406;2023-05-29T13:54:52;102331.50;;;23.13;35.15
54042;BME280;41156;51.508;5.406;2023-05-29T13:57:52;102332.97;;;23.20;34.47
54042;BME280;41156;51.508;5.406;2023-05-29T14:00:53;102321.84;;;23.10;34.28
54042;BME280;41156;51.508;5.406;2023-05-29T14:03:54;102318.34;;;22.92;34.65
54042;BME280;41156;51.508;5.406;2023-05-29T14:06:54;102316.78;;;23.02;34.72
54042;BME280;41156;51.508;5.406;2023-05-29T14:09:56;102313.31;;;22.84;33.82
54042;BME280;41156;51.508;5.406;2023-05-29T14:12:56;102310.97;;;22.98;35.02
54042;BME280;41156;51.508;5.406;2023-05-29T14:15:57;102318.50;;;23.08;34.46
54042;BME280;41156;51.508;5.406;2023-05-29T14:18:58;102317.19;;;23.16;34.64
54042;BME280;41156;51.508;5.406;2023-05-29T14:21:58;102317.03;;;23.33;34.33
54042;BME280;41156;51.508;5.406;2023-05-29T14:25:01;102311.84;;;23.41;35.07
54042;BME280;41156;51.508;5.406;2023-05-29T14:28:01;102308.56;;;23.44;34.95
54042;BME280;41156;51.508;5.406;2023-05-29T14:31:01;102305.34;;;23.63;34.76
54042;BME280;41156;51.508;5.406;2023-05-29T14:34:01;102304.00;;;23.65;34.53
54042;BME280;41156;51.508;5.406;2023-05-29T14:37:02;102303.16;;;23.60;34.87
54042;BME280;41156;51.508;5.406;2023-05-29T14:40:02;102311.06;;;23.46;34.88
54042;BME280;41156;51.508;5.406;2023-05-29T14:43:04;102306.16;;;23.53;34.71
54042;BME280;41156;51.508;5.406;2023-05-29T14:46:04;102314.25;;;23.75;33.17
54042;BME280;41156;51.508;5.406;2023-05-29T14:49:04;102317.38;;;23.84;33.01
54042;BME280;41156;51.508;5.406;2023-05-29T14:52:05;102312.84;;;23.68;33.17
54042;BME280;41156;51.508;5.406;2023-05-29T14:55:06;102312.31;;;23.71;34.28
54042;BME280;41156;51.508;5.406;2023-05-29T14:58:07;102311.31;;;23.92;34.09
54042;BME280;41156;51.508;5.406;2023-05-29T15:01:07;102307.00;;;24.12;34.11
54042;BME280;41156;51.508;5.406;2023-05-29T15:04:07;102296.22;;;24.10;33.75
54042;BME280;41156;51.508;5.406;2023-05-29T15:07:08;102296.75;;;24.12;33.93
54042;BME280;41156;51.508;5.406;2023-05-29T15:10:08;102304.25;;;24.17;33.37
54042;BME280;41156;51.508;5.406;2023-05-29T15:13:09;102305.31;;;24.11;34.00
54042;BME280;41156;51.508;5.406;2023-05-29T15:16:09;102304.25;;;24.17;33.23
54042;BME280;41156;51.508;5.406;2023-05-29T15:19:09;102305.41;;;24.36;33.61
54042;BME280;41156;51.508;5.406;2023-05-29T15:22:10;102298.50;;;24.49;33.16
54042;BME280;41156;51.508;5.406;2023-05-29T15:25:11;102296.63;;;24.60;32.52
54042;BME280;41156;51.508;5.406;2023-05-29T15:28:11;102301.00;;;24.51;32.81
54042;BME280;41156;51.508;5.406;2023-05-29T15:31:13;102303.53;;;24.68;32.32
54042;BME280;41156;51.508;5.406;2023-05-29T15:34:13;102294.13;;;24.89;32.11
54042;BME280;41156;51.508;5.406;2023-05-29T15:37:14;102302.16;;;24.75;30.03
54042;BME280;41156;51.508;5.406;2023-05-29T15:40:14;102297.19;;;24.67;32.00
54042;BME280;41156;51.508;5.406;2023-05-29T15:43:15;102292.72;;;24.56;32.27
54042;BME280;41156;51.508;5.406;2023-05-29T15:46:15;102288.31;;;24.50;31.77
54042;BME280;41156;51.508;5.406;2023-05-29T15:49:15;102289.38;;;24.49;31.20
54042;BME280;41156;51.508;5.406;2023-05-29T15:52:16;102287.22;;;24.61;31.93
54042;BME280;41156;51.508;5.406;2023-05-29T15:55:17;102291.38;;;24.79;31.60
54042;BME280;41156;51.508;5.406;2023-05-29T15:58:17;102285.03;;;24.89;32.07
54042;BME280;41156;51.508;5.406;2023-05-29T16:01:18;102290.81;;;25.03;31.43
54042;BME280;41156;51.508;5.406;2023-05-29T16:04:18;102282.25;;;24.89;31.37